Rancho Murieta, California
Current Conditions -  °F | °C
As of 7:45 AM on Sunday 25 Jan 2015 (Local Time) from KMHR Reporting Station
Overcast Overcast  
Wind Chill: 41°   Ceiling: 200
Heat Index: 41°   Visibility: 0.25mi
Dew Point: 41°   Wind: 3mph
Humidity: 100%   Direction: 330°NNW
Pressure: 30.2"   Gusts: NA
Location:  38.5091°N, 121.107°W
Report Text: KMHR 251545Z 33003KT 1/4SM OVC002 05/05 A3020 FG
Loading
Personal Weather Stations






























Interactive Weather Map New forecast layout! Learn more

10-Day Weather Forecast

Advertisements
Track Severe Weather on mobile